Pine Island, Minnesota
Current Conditions -  °F | °C
As of 9:33 PM on Sunday 21 Dec 2014 (Local Time) from K9MN Reporting Station
Overcast Overcast  
Wind Chill: 28°   Ceiling: 400
Heat Index: 37°   Visibility: 4mi
Dew Point: 36°   Wind: 15mph
Humidity: 97%   Direction: 150°SSE
Pressure: 29.77"   Gusts: 21mph
Location:  44.2°N, 92.65°W
Report Text: K9MN 220333Z AUTO 15013G18KT 4SM OVC004 03/02 A2977 RMK AO1 T00270023
Loading
Personal Weather Stations






























Interactive Weather Map New forecast layout! Learn more

10-Day Weather Forecast

Advertisements
Track Severe Weather on mobile